Time;durP1;ratioP1;P1;durP2;ratioP2;P2;SDS_P1;SDS_P2;PMS_P1;PMS_P2;Temp;Humidity;BMP_temperature;BMP_pressure;BME280_temperature;BME280_humidity;BME280_pressure;Samples;Min_cycle;Max_cycle;Signal;HPM_P1;HPM_P2
2022/06/14 00:05:46;;;;;;;2.8;4.3;;;;;;;9.9;100;98760;;;;
2022/06/14 00:15:46;;;;;;;2.8;4.3;;;;;;;9.8;100;98780;;;;
2022/06/14 00:25:46;;;;;;;2.8;4.3;;;;;;;9.9;100;98790;;;;
2022/06/14 00:36:47;;;;;;;3.2;6.8;;;;;;;9.8;100;98790;;;;
2022/06/14 00:46:47;;;;;;;3.2;6.8;;;;;;;9.8;100;98790;;;;
2022/06/14 00:56:46;;;;;;;3.2;6.8;;;;;;;9.8;100;98800;;;;
2022/06/14 01:07:46;;;;;;;5.3;8;;;;;;;9.9;100;98800;;;;
2022/06/14 01:17:46;;;;;;;5.3;8;;;;;;;10;100;98810;;;;
2022/06/14 01:28:46;;;;;;;6.5;9;;;;;;;10.2;100;98810;;;;
2022/06/14 01:38:46;;;;;;;6.5;9;;;;;;;10.4;100;98820;;;;
2022/06/14 01:59:46;;;;;;;7.4;10.2;;;;;;;10.8;100;98830;;;;
2022/06/14 02:10:46;;;;;;;7.4;10.2;;;;;;;11;100;98830;;;;
2022/06/14 02:21:46;;;;;;;7.4;10.2;;;;;;;11.1;100;98840;;;;
2022/06/14 02:31:46;;;;;;;6.8;10.1;;;;;;;11.2;100;98860;;;;
2022/06/14 02:42:46;;;;;;;6.8;10.1;;;;;;;11.4;100;98880;;;;
2022/06/14 02:52:46;;;;;;;6.8;10.1;;;;;;;11.5;100;98890;;;;
2022/06/14 03:02:46;;;;;;;7.8;11.5;;;;;;;11.6;100;98890;;;;
2022/06/14 03:12:46;;;;;;;7.8;11.5;;;;;;;11.4;100;98900;;;;
2022/06/14 03:23:46;;;;;;;7.8;11.5;;;;;;;11.4;100;98910;;;;
2022/06/14 03:34:46;;;;;;;6.7;9.9;;;;;;;11.3;100;98920;;;;
2022/06/14 03:45:46;;;;;;;6.7;9.9;;;;;;;11.6;100;98930;;;;
2022/06/14 03:55:46;;;;;;;6.7;9.9;;;;;;;11.7;100;98940;;;;
2022/06/14 04:06:47;;;;;;;7;10;;;;;;;12.1;100;98950;;;;
2022/06/14 04:17:46;;;;;;;7;10;;;;;;;12.5;100;98960;;;;
2022/06/14 04:27:46;;;;;;;6.7;12.7;;;;;;;12.5;100;98970;;;;
2022/06/14 04:37:46;;;;;;;6.7;12.7;;;;;;;12.7;100;98970;;;;
2022/06/14 04:47:46;;;;;;;6.7;12.7;;;;;;;13.1;100;98970;;;;
2022/06/14 04:58:46;;;;;;;6.3;10.9;;;;;;;13.2;100;98970;;;;
2022/06/14 05:08:46;;;;;;;6.3;10.9;;;;;;;13.6;100;98990;;;;
2022/06/14 05:19:46;;;;;;;6.3;10.9;;;;;;;13.9;100;98990;;;;
2022/06/14 05:29:46;;;;;;;5.9;10.7;;;;;;;14.1;100;99000;;;;
2022/06/14 05:40:46;;;;;;;5.9;10.7;;;;;;;14.3;100;99000;;;;
2022/06/14 05:50:46;;;;;;;5.9;10.7;;;;;;;14.6;100;99000;;;;
2022/06/14 06:00:46;;;;;;;6.6;11.9;;;;;;;14.9;100;99000;;;;
2022/06/14 06:11:46;;;;;;;6.6;11.9;;;;;;;14.5;100;99000;;;;
2022/06/14 06:22:46;;;;;;;6.6;11.9;;;;;;;14.6;100;99010;;;;
2022/06/14 06:32:46;;;;;;;7;12.3;;;;;;;14.9;100;99010;;;;
2022/06/14 06:43:46;;;;;;;7;12.3;;;;;;;14.8;100;99030;;;;
2022/06/14 06:53:46;;;;;;;7;12.3;;;;;;;15.3;100;99030;;;;
2022/06/14 07:03:46;;;;;;;5.4;13.1;;;;;;;15.3;100;99040;;;;
2022/06/14 07:14:46;;;;;;;5.4;13.1;;;;;;;15.9;100;99040;;;;
2022/06/14 07:24:46;;;;;;;5.4;13.1;;;;;;;15.9;100;99030;;;;
2022/06/14 07:35:46;;;;;;;4.6;9.8;;;;;;;16.4;100;99040;;;;
2022/06/14 07:45:46;;;;;;;4.6;9.8;;;;;;;16.1;100;99040;;;;
2022/06/14 07:56:46;;;;;;;3.3;7.5;;;;;;;16.3;100;99040;;;;
2022/06/14 08:07:46;;;;;;;3.3;7.5;;;;;;;16.7;100;99040;;;;
2022/06/14 08:18:47;;;;;;;3.3;7.5;;;;;;;16.7;100;99040;;;;
2022/06/14 08:29:46;;;;;;;3.3;9.6;;;;;;;17.3;100;99050;;;;
2022/06/14 08:40:46;;;;;;;3.3;9.6;;;;;;;17.2;100;99040;;;;
2022/06/14 08:51:46;;;;;;;3.3;9.6;;;;;;;17.5;100;99030;;;;
2022/06/14 09:01:46;;;;;;;2.3;5.1;;;;;;;17.6;100;99010;;;;
2022/06/14 09:11:46;;;;;;;2.3;5.1;;;;;;;18.5;100;99000;;;;
2022/06/14 09:22:46;;;;;;;2.3;5.1;;;;;;;18.8;100;98990;;;;
2022/06/14 09:33:46;;;;;;;2.6;5.3;;;;;;;19.5;100;99000;;;;
2022/06/14 09:43:46;;;;;;;2.6;5.3;;;;;;;19.4;100;99000;;;;
2022/06/14 09:54:46;;;;;;;2.6;5.3;;;;;;;18.3;100;99010;;;;
2022/06/14 10:04:46;;;;;;;2.2;5.7;;;;;;;18.1;100;99010;;;;
2022/06/14 10:15:46;;;;;;;2.2;5.7;;;;;;;18.2;100;99010;;;;
2022/06/14 10:35:46;;;;;;;1.7;4.2;;;;;;;18.6;100;99020;;;;
2022/06/14 10:46:46;;;;;;;1.7;4.2;;;;;;;18.8;100;99020;;;;
2022/06/14 10:57:46;;;;;;;1.9;4.7;;;;;;;19.2;100;99010;;;;
2022/06/14 11:07:46;;;;;;;1.9;4.7;;;;;;;19.2;100;99010;;;;
2022/06/14 11:17:46;;;;;;;1.9;4.7;;;;;;;19.8;100;99010;;;;
2022/06/14 11:28:46;;;;;;;1.2;3.9;;;;;;;19.7;100;99010;;;;
2022/06/14 11:39:48;;;;;;;1.2;3.9;;;;;;;20.4;100;99010;;;;
2022/06/14 11:49:46;;;;;;;1.2;3.9;;;;;;;20.4;100;98990;;;;
2022/06/14 12:00:46;;;;;;;1.4;3.3;;;;;;;20.3;100;98990;;;;
2022/06/14 12:10:47;;;;;;;1.4;3.3;;;;;;;19.6;100;99000;;;;
2022/06/14 12:21:46;;;;;;;1.4;3.3;;;;;;;20;100;98990;;;;
2022/06/14 12:32:46;;;;;;;1.5;4.2;;;;;;;19.9;100;99010;;;;
2022/06/14 12:42:46;;;;;;;1.5;4.2;;;;;;;18.5;100;99000;;;;
2022/06/14 12:52:47;;;;;;;1.5;4.2;;;;;;;18.6;100;99000;;;;
2022/06/14 13:02:47;;;;;;;1.5;3.4;;;;;;;19.3;100;98990;;;;
2022/06/14 13:12:46;;;;;;;1.5;3.4;;;;;;;19.6;100;98980;;;;
2022/06/14 13:23:46;;;;;;;1.5;3.4;;;;;;;19.4;100;98980;;;;
2022/06/14 13:34:46;;;;;;;2;5.9;;;;;;;20.2;97.1;98970;;;;
2022/06/14 13:44:46;;;;;;;2;5.9;;;;;;;19.5;100;98960;;;;
2022/06/14 13:55:46;;;;;;;2;5.9;;;;;;;19.7;99.8;98960;;;;
2022/06/14 14:06:46;;;;;;;1.2;3.3;;;;;;;20.1;99.5;98960;;;;
2022/06/14 14:17:46;;;;;;;1.2;3.3;;;;;;;21.4;94.6;98950;;;;
2022/06/14 14:28:46;;;;;;;1.2;3.2;;;;;;;20.3;95.2;98940;;;;
2022/06/14 14:38:47;;;;;;;1.2;3.2;;;;;;;22;86.2;98940;;;;
2022/06/14 14:48:46;;;;;;;1.2;3.2;;;;;;;21.5;81.7;98930;;;;
2022/06/14 14:59:46;;;;;;;1.9;4.4;;;;;;;20.5;80.6;98930;;;;
2022/06/14 15:09:46;;;;;;;1.9;4.4;;;;;;;25.1;71.8;98940;;;;
2022/06/14 15:19:54;;;;;;;1.9;4.4;;;;;;;22.7;71.5;98930;;;;
2022/06/14 15:30:47;;;;;;;1.4;5.7;;;;;;;23.3;71.5;98930;;;;
2022/06/14 15:41:46;;;;;;;1.4;5.7;;;;;;;26.4;58.2;98930;;;;
2022/06/14 15:51:46;;;;;;;1.4;5.7;;;;;;;27.1;48.5;98930;;;;
2022/06/14 16:02:47;;;;;;;1.5;5.3;;;;;;;25;55.3;98930;;;;
2022/06/14 16:12:46;;;;;;;1.5;5.3;;;;;;;27.2;50.8;98930;;;;
2022/06/14 16:22:46;;;;;;;1.5;5.3;;;;;;;27.5;47.5;98930;;;;
2022/06/14 16:33:46;;;;;;;1.4;4.1;;;;;;;27.8;45.1;98930;;;;
2022/06/14 16:43:46;;;;;;;1.4;4.1;;;;;;;28.4;44.8;98920;;;;
2022/06/14 16:54:47;;;;;;;1.4;4.1;;;;;;;27.2;45.9;98920;;;;
2022/06/14 17:04:47;;;;;;;1;4.4;;;;;;;27.9;45.3;98920;;;;
2022/06/14 17:15:47;;;;;;;1;4.4;;;;;;;24;52;98910;;;;
2022/06/14 17:37:47;;;;;;;1.6;4.4;;;;;;;24.2;53.9;98920;;;;
2022/06/14 17:47:47;;;;;;;1.6;4.4;;;;;;;25.4;49.8;98920;;;;
2022/06/14 17:58:47;;;;;;;2;5.1;;;;;;;26;48.3;98920;;;;
2022/06/14 18:09:47;;;;;;;2;5.1;;;;;;;22.4;55.3;98930;;;;
2022/06/14 18:20:50;;;;;;;2;5.1;;;;;;;20.2;65.3;98920;;;;
2022/06/14 18:30:47;;;;;;;2.4;6.5;;;;;;;18.8;72.8;98930;;;;
2022/06/14 18:41:47;;;;;;;2.4;6.5;;;;;;;17.5;77.7;98930;;;;
2022/06/14 18:52:47;;;;;;;2.4;6.5;;;;;;;16.3;82.5;98940;;;;
2022/06/14 19:02:47;;;;;;;2.3;6.5;;;;;;;15.6;92.8;98950;;;;
2022/06/14 19:12:47;;;;;;;2.3;6.5;;;;;;;14.9;100;98960;;;;
2022/06/14 19:23:47;;;;;;;2.3;6.5;;;;;;;14.2;100;98970;;;;
2022/06/14 19:33:47;;;;;;;2.6;7.2;;;;;;;14.1;100;98980;;;;
2022/06/14 19:44:47;;;;;;;2.6;7.2;;;;;;;13.9;100;98980;;;;
2022/06/14 19:54:47;;;;;;;2.6;7.2;;;;;;;13.9;100;98980;;;;
2022/06/14 20:04:47;;;;;;;3.8;7.8;;;;;;;13.7;100;98990;;;;
2022/06/14 20:14:47;;;;;;;3.8;7.8;;;;;;;13.6;100;98990;;;;
2022/06/14 20:25:47;;;;;;;3.8;7.8;;;;;;;13.3;100;98990;;;;
2022/06/14 20:36:47;;;;;;;3.6;7.3;;;;;;;13.2;100;98990;;;;
2022/06/14 20:46:47;;;;;;;3.6;7.3;;;;;;;13.2;100;99000;;;;
2022/06/14 20:56:47;;;;;;;3.6;7.3;;;;;;;13.1;100;99010;;;;
2022/06/14 21:06:47;;;;;;;3.6;8.2;;;;;;;13.2;100;99010;;;;
2022/06/14 21:17:47;;;;;;;3.6;8.2;;;;;;;12.9;100;99020;;;;
2022/06/14 21:27:47;;;;;;;4.2;7.9;;;;;;;13;100;99020;;;;
2022/06/14 21:38:47;;;;;;;4.2;7.9;;;;;;;12.9;100;99030;;;;
2022/06/14 21:49:47;;;;;;;4.2;7.9;;;;;;;12.8;100;99030;;;;
2022/06/14 21:59:47;;;;;;;4.3;10.6;;;;;;;12.8;100;99040;;;;
2022/06/14 22:09:47;;;;;;;4.3;10.6;;;;;;;12.8;100;99040;;;;
2022/06/14 22:20:47;;;;;;;4.3;10.6;;;;;;;12.7;100;99040;;;;
2022/06/14 22:30:47;;;;;;;3.7;7.1;;;;;;;12.9;100;99050;;;;
2022/06/14 22:40:47;;;;;;;3.7;7.1;;;;;;;12.9;100;99060;;;;
2022/06/14 22:50:47;;;;;;;3.7;7.1;;;;;;;12.7;100;99060;;;;
2022/06/14 23:01:47;;;;;;;4;6.8;;;;;;;12.5;100;99050;;;;
2022/06/14 23:11:47;;;;;;;4;6.8;;;;;;;12.3;100;99060;;;;
2022/06/14 23:21:47;;;;;;;4;6.8;;;;;;;11.9;100;99060;;;;
2022/06/14 23:31:47;;;;;;;4;9.7;;;;;;;11.5;100;99060;;;;
2022/06/14 23:41:47;;;;;;;4;9.7;;;;;;;11.2;100;99060;;;;
2022/06/14 23:51:47;;;;;;;4;9.7;;;;;;;10.9;100;99060;;;;
